createdAt,value
2023-05-05T00:02:09.212Z,20.14
2023-05-05T00:04:36.894Z,20.19
2023-05-05T00:07:04.331Z,19.96
2023-05-05T00:09:31.486Z,20.26
2023-05-05T00:12:00.563Z,20.06
2023-05-05T00:14:27.693Z,20.17
2023-05-05T00:16:56.806Z,20.28
2023-05-05T00:19:24.021Z,20.33
2023-05-05T00:21:51.376Z,20.13
2023-05-05T00:24:19.787Z,20.15
2023-05-05T00:26:46.999Z,19.98
2023-05-05T00:29:16.074Z,19.93
2023-05-05T00:31:43.463Z,20.10
2023-05-05T00:34:10.786Z,20.12
2023-05-05T00:36:38.051Z,20.40
2023-05-05T00:39:05.290Z,20.47
2023-05-05T00:41:33.101Z,20.19
2023-05-05T00:44:00.490Z,20.15
2023-05-05T00:46:32.332Z,20.32
2023-05-05T00:49:01.264Z,20.23
2023-05-05T00:51:29.255Z,20.18
2023-05-05T00:53:57.258Z,20.24
2023-05-05T00:56:25.329Z,20.19
2023-05-05T00:58:52.196Z,20.28
2023-05-05T01:01:19.892Z,20.24
2023-05-05T01:03:50.236Z,20.13
2023-05-05T01:06:33.843Z,20.13
2023-05-05T01:09:09.557Z,19.94
2023-05-05T01:11:46.460Z,20.00
2023-05-05T01:14:17.903Z,20.00
2023-05-05T01:16:56.737Z,20.04
2023-05-05T01:19:57.491Z,20.15
2023-05-05T01:22:28.905Z,20.21
2023-05-05T01:25:21.384Z,20.44
2023-05-05T01:28:07.261Z,20.33
2023-05-05T01:30:57.980Z,20.35
2023-05-05T01:33:31.851Z,20.37
2023-05-05T01:36:06.128Z,20.45
2023-05-05T01:38:39.589Z,20.45
2023-05-05T01:41:13.439Z,20.44
2023-05-05T01:43:43.567Z,20.40
2023-05-05T01:46:13.794Z,20.50
2023-05-05T01:48:44.731Z,20.38
2023-05-05T01:51:13.883Z,20.36
2023-05-05T01:53:42.546Z,20.57
2023-05-05T01:56:11.743Z,20.48
2023-05-05T01:58:40.854Z,20.50
2023-05-05T02:01:09.529Z,20.52
2023-05-05T02:03:39.659Z,20.41
2023-05-05T02:06:10.629Z,20.40
2023-05-05T02:08:39.680Z,20.51
2023-05-05T02:11:10.364Z,20.53
2023-05-05T02:13:39.477Z,20.52
2023-05-05T02:16:07.519Z,20.41
2023-05-05T02:18:36.478Z,20.53
2023-05-05T02:21:04.524Z,20.48
2023-05-05T02:23:33.701Z,20.55
2023-05-05T02:26:06.335Z,20.55
2023-05-05T02:28:41.621Z,20.51
2023-05-05T02:31:10.930Z,20.45
2023-05-05T02:33:40.159Z,20.44
2023-05-05T02:36:14.782Z,20.44
2023-05-05T02:38:45.135Z,20.54
2023-05-05T02:41:17.718Z,20.49
2023-05-05T02:43:48.844Z,20.41
2023-05-05T02:46:16.737Z,20.52
2023-05-05T02:48:45.478Z,20.46
2023-05-05T02:51:12.852Z,20.51
2023-05-05T02:53:40.308Z,20.44
2023-05-05T02:56:21.579Z,20.56
2023-05-05T02:58:54.250Z,20.48
2023-05-05T03:01:31.256Z,20.46
2023-05-05T03:04:07.272Z,20.59
2023-05-05T03:06:41.340Z,20.59
2023-05-05T03:09:13.532Z,20.66
2023-05-05T03:11:47.958Z,20.63
2023-05-05T03:14:18.588Z,20.52
2023-05-05T03:16:47.355Z,20.43
2023-05-05T03:19:18.504Z,20.52
2023-05-05T03:21:46.369Z,20.55
2023-05-05T03:24:15.574Z,20.59
2023-05-05T03:26:46.394Z,20.54
2023-05-05T03:29:14.020Z,20.56
2023-05-05T03:31:41.777Z,20.50
2023-05-05T03:34:09.219Z,20.71
2023-05-05T03:36:36.939Z,20.55
2023-05-05T03:39:04.560Z,20.30
2023-05-05T03:41:31.900Z,20.65
2023-05-05T03:44:00.886Z,20.61
2023-05-05T03:46:28.349Z,20.52
2023-05-05T03:48:55.648Z,20.19
2023-05-05T03:51:23.385Z,20.53
2023-05-05T03:53:50.788Z,20.45
2023-05-05T03:56:18.251Z,20.56
2023-05-05T03:58:45.824Z,20.62
2023-05-05T04:01:15.038Z,20.24
2023-05-05T04:03:42.525Z,20.44
2023-05-05T04:06:10.212Z,20.33
2023-05-05T04:08:37.504Z,20.54
2023-05-05T04:11:05.350Z,20.47
2023-05-05T04:13:32.836Z,20.49
2023-05-05T04:16:00.115Z,20.65
2023-05-05T04:18:29.657Z,20.63
2023-05-05T04:20:57.272Z,20.63
2023-05-05T04:23:24.892Z,20.64
2023-05-05T04:25:52.526Z,20.34
2023-05-05T04:28:21.603Z,20.45
2023-05-05T04:30:49.511Z,20.41
2023-05-05T04:33:16.814Z,20.22
2023-05-05T04:35:45.378Z,20.43
2023-05-05T04:38:13.491Z,20.35
2023-05-05T04:40:40.904Z,20.39
2023-05-05T04:43:08.108Z,20.45
2023-05-05T04:45:35.300Z,20.55
2023-05-05T04:48:02.867Z,20.52
2023-05-05T04:50:29.636Z,20.47
2023-05-05T04:52:58.789Z,20.45
2023-05-05T04:55:27.417Z,20.31
2023-05-05T04:57:54.841Z,20.23
2023-05-05T05:00:23.205Z,20.21
2023-05-05T05:02:50.729Z,20.22
2023-05-05T05:05:18.438Z,20.10
2023-05-05T05:07:45.861Z,19.98
2023-05-05T05:10:15.228Z,19.97
2023-05-05T05:12:42.836Z,19.92
2023-05-05T05:15:10.965Z,20.03
2023-05-05T05:17:38.133Z,20.01
2023-05-05T05:20:06.913Z,20.09
2023-05-05T05:22:34.539Z,20.10
2023-05-05T05:25:02.357Z,20.09
2023-05-05T05:27:31.312Z,19.94
2023-05-05T05:29:58.763Z,19.90
2023-05-05T05:32:26.102Z,19.99
2023-05-05T05:34:53.477Z,20.09
2023-05-05T05:37:21.245Z,20.10
2023-05-05T05:39:52.383Z,20.28
2023-05-05T05:42:19.777Z,20.35
2023-05-05T05:44:49.196Z,20.38
2023-05-05T05:47:16.711Z,20.42
2023-05-05T05:49:43.582Z,20.14
2023-05-05T05:52:11.008Z,20.22
2023-05-05T05:54:38.485Z,20.02
2023-05-05T05:57:05.675Z,20.20
2023-05-05T05:59:33.564Z,20.31
2023-05-05T06:02:02.586Z,20.50
2023-05-05T06:04:29.939Z,20.66
2023-05-05T06:06:58.237Z,20.61
2023-05-05T06:09:25.707Z,20.61
2023-05-05T06:11:53.503Z,20.71
2023-05-05T06:14:20.830Z,20.69
2023-05-05T06:16:48.112Z,20.52
2023-05-05T06:19:16.648Z,20.58
2023-05-05T06:21:43.804Z,20.49
2023-05-05T06:24:11.124Z,20.65
2023-05-05T06:26:38.752Z,20.86
2023-05-05T06:29:06.065Z,20.89
2023-05-05T06:31:33.433Z,21.01
2023-05-05T06:34:01.593Z,20.85
2023-05-05T06:36:30.457Z,20.82
2023-05-05T06:38:57.867Z,20.85
2023-05-05T06:41:25.346Z,20.81
2023-05-05T06:43:52.468Z,20.93
2023-05-05T06:46:19.817Z,21.01
2023-05-05T06:48:47.120Z,21.05
2023-05-05T06:51:14.608Z,21.18
2023-05-05T06:53:43.428Z,21.36
2023-05-05T06:56:11.096Z,21.41
2023-05-05T06:58:38.419Z,21.50
2023-05-05T07:01:06.328Z,21.54
2023-05-05T07:03:34.123Z,21.70
2023-05-05T07:06:01.430Z,21.67
2023-05-05T07:08:34.877Z,21.70
2023-05-05T07:11:03.979Z,21.71
2023-05-05T07:13:30.806Z,21.76
2023-05-05T07:15:57.544Z,21.61
2023-05-05T07:18:25.017Z,21.70
2023-05-05T07:20:52.315Z,21.87
2023-05-05T07:23:21.668Z,21.90
2023-05-05T07:25:49.869Z,22.06
2023-05-05T07:28:20.780Z,22.01
2023-05-05T07:30:48.571Z,22.03
2023-05-05T07:33:15.981Z,22.12
2023-05-05T07:35:43.222Z,22.69
2023-05-05T07:38:11.014Z,23.15
2023-05-05T07:40:38.476Z,23.08
2023-05-05T07:43:05.441Z,22.98
2023-05-05T07:45:34.693Z,23.17
2023-05-05T07:48:02.078Z,23.21
2023-05-05T07:50:29.446Z,22.95
2023-05-05T07:53:06.178Z,22.74
2023-05-05T07:55:41.845Z,22.83
2023-05-05T07:58:09.237Z,23.12
2023-05-05T08:00:38.441Z,23.42
2023-05-05T08:03:07.121Z,23.53
2023-05-05T08:05:35.070Z,23.61
2023-05-05T08:08:01.846Z,23.84
2023-05-05T08:10:29.111Z,24.18
2023-05-05T08:12:56.437Z,24.11
2023-05-05T08:15:23.996Z,24.42
2023-05-05T08:17:53.372Z,24.51
2023-05-05T08:20:20.667Z,24.62
2023-05-05T08:22:48.694Z,24.48
2023-05-05T08:25:15.533Z,24.48
2023-05-05T08:27:43.696Z,24.87
2023-05-05T08:30:12.258Z,25.02
2023-05-05T08:32:39.344Z,25.14
2023-05-05T08:35:09.329Z,24.80
2023-05-05T08:37:36.554Z,24.94
2023-05-05T08:40:04.263Z,25.08
2023-05-05T08:42:37.852Z,25.15
2023-05-05T08:45:09.174Z,25.49
2023-05-05T08:47:38.377Z,25.74
2023-05-05T08:50:10.390Z,25.84
2023-05-05T08:52:40.682Z,25.92
2023-05-05T08:55:14.596Z,25.88
2023-05-05T08:57:47.944Z,26.51
2023-05-05T09:00:19.401Z,26.62
2023-05-05T09:02:47.248Z,26.65
2023-05-05T09:05:16.043Z,26.76
2023-05-05T09:07:43.626Z,26.58
2023-05-05T09:10:12.008Z,26.19
2023-05-05T09:12:39.600Z,25.41
2023-05-05T09:15:08.421Z,25.07
2023-05-05T09:17:35.613Z,25.22
2023-05-05T09:20:04.741Z,25.39
2023-05-05T09:22:37.714Z,25.15
2023-05-05T09:25:05.613Z,24.27
2023-05-05T09:27:36.257Z,24.48
2023-05-05T09:30:04.162Z,24.44
2023-05-05T09:32:42.807Z,24.36
2023-05-05T09:35:10.021Z,24.46
2023-05-05T09:37:38.517Z,24.64
2023-05-05T09:40:06.970Z,25.13
2023-05-05T09:42:35.784Z,25.00
2023-05-05T09:45:02.764Z,25.09
2023-05-05T09:47:36.500Z,24.85
2023-05-05T09:50:05.490Z,23.79
2023-05-05T09:52:32.405Z,23.92
2023-05-05T09:55:00.875Z,23.94
2023-05-05T09:57:29.621Z,24.22
2023-05-05T09:59:57.672Z,24.63
2023-05-05T10:02:31.643Z,24.97
2023-05-05T10:05:07.146Z,24.50
2023-05-05T10:07:35.111Z,24.43
2023-05-05T10:10:05.038Z,24.76
2023-05-05T10:12:35.009Z,25.05
2023-05-05T10:15:02.799Z,24.91
2023-05-05T10:17:32.929Z,25.43
2023-05-05T10:20:01.758Z,26.06
2023-05-05T10:22:33.174Z,26.14
2023-05-05T10:25:09.531Z,26.63
2023-05-05T10:27:43.992Z,26.99
2023-05-05T10:30:17.310Z,27.38
2023-05-05T10:33:00.595Z,27.79
2023-05-05T10:35:40.279Z,26.98
2023-05-05T10:38:08.981Z,26.66
2023-05-05T10:40:37.715Z,27.12
2023-05-05T10:43:05.136Z,27.51
2023-05-05T10:45:32.346Z,27.63
2023-05-05T10:48:04.816Z,27.33
2023-05-05T10:50:37.294Z,26.25
2023-05-05T10:53:17.049Z,25.61
2023-05-05T10:55:52.417Z,25.87
2023-05-05T10:58:36.586Z,26.05
2023-05-05T11:01:08.394Z,26.55
2023-05-05T11:03:35.664Z,26.44
2023-05-05T11:06:12.406Z,26.19
2023-05-05T11:08:40.610Z,25.78
2023-05-05T11:11:10.198Z,25.93
2023-05-05T11:13:38.499Z,26.20
2023-05-05T11:16:06.766Z,26.41
2023-05-05T11:18:36.315Z,26.16
2023-05-05T11:21:08.974Z,26.23
2023-05-05T11:23:36.080Z,26.15
2023-05-05T11:26:03.122Z,26.17
2023-05-05T11:28:31.736Z,26.42
2023-05-05T11:31:18.960Z,25.80
2023-05-05T11:33:46.052Z,26.03
2023-05-05T11:36:14.078Z,25.77
2023-05-05T11:39:04.693Z,25.66
2023-05-05T11:41:59.390Z,24.99
2023-05-05T11:44:42.321Z,25.16
2023-05-05T11:47:29.680Z,25.38
2023-05-05T11:49:57.224Z,24.32
2023-05-05T11:52:25.865Z,24.02
2023-05-05T11:54:52.688Z,23.48
2023-05-05T11:57:27.058Z,23.52
2023-05-05T11:59:57.005Z,23.82
2023-05-05T12:02:24.900Z,24.13
2023-05-05T12:04:52.517Z,24.30
2023-05-05T12:07:20.971Z,25.16
2023-05-05T12:09:49.557Z,26.35
2023-05-05T12:12:17.656Z,27.52
2023-05-05T12:14:49.149Z,27.64
2023-05-05T12:17:19.403Z,27.26
2023-05-05T12:19:50.289Z,26.91
2023-05-05T12:22:22.581Z,26.75
2023-05-05T12:24:56.636Z,26.26
2023-05-05T12:27:24.551Z,25.83
2023-05-05T12:29:52.090Z,25.70
2023-05-05T12:32:21.727Z,25.85
2023-05-05T12:34:50.106Z,26.37
2023-05-05T12:37:17.771Z,27.21
2023-05-05T12:39:45.234Z,27.32
2023-05-05T12:42:12.112Z,27.36
2023-05-05T12:44:40.386Z,27.00
2023-05-05T12:47:07.902Z,26.62
2023-05-05T12:49:49.894Z,26.62
2023-05-05T12:52:17.646Z,26.03
2023-05-05T12:54:59.199Z,25.07
2023-05-05T12:57:26.745Z,24.60
2023-05-05T12:59:53.830Z,24.87
2023-05-05T13:02:21.020Z,24.96
2023-05-05T13:04:52.139Z,24.98
2023-05-05T13:07:20.718Z,25.28
2023-05-05T13:09:49.359Z,25.64
2023-05-05T13:12:18.151Z,25.46
2023-05-05T13:14:46.025Z,24.66
2023-05-05T13:17:13.930Z,23.15
2023-05-05T13:19:41.355Z,22.20
2023-05-05T13:22:10.645Z,21.64
2023-05-05T13:24:50.728Z,21.58
2023-05-05T13:27:21.060Z,20.26
2023-05-05T13:29:48.447Z,19.46
2023-05-05T13:32:15.649Z,19.55
2023-05-05T13:34:42.985Z,19.44
2023-05-05T13:37:11.380Z,19.70
2023-05-05T13:39:38.937Z,19.93
2023-05-05T13:42:06.126Z,20.20
2023-05-05T13:44:34.149Z,20.32
2023-05-05T13:47:00.890Z,20.41
2023-05-05T13:49:28.478Z,20.43
2023-05-05T13:51:55.282Z,20.57
2023-05-05T13:54:23.349Z,20.73
2023-05-05T13:56:50.565Z,20.61
2023-05-05T13:59:17.551Z,20.70
2023-05-05T14:01:45.239Z,20.74
2023-05-05T14:04:12.647Z,20.69
2023-05-05T14:06:40.415Z,20.68
2023-05-05T14:09:08.354Z,20.57
2023-05-05T14:11:36.470Z,20.16
2023-05-05T14:14:03.761Z,19.54
2023-05-05T14:16:31.307Z,19.75
2023-05-05T14:18:58.634Z,19.87
2023-05-05T14:21:25.997Z,20.06
2023-05-05T14:23:53.143Z,20.01
2023-05-05T14:26:20.341Z,19.94
2023-05-05T14:28:50.071Z,20.10
2023-05-05T14:31:17.308Z,20.15
2023-05-05T14:33:45.287Z,20.33
2023-05-05T14:36:12.900Z,20.30
2023-05-05T14:38:39.842Z,20.32
2023-05-05T14:41:07.663Z,20.22
2023-05-05T14:43:34.923Z,20.28
2023-05-05T14:46:04.733Z,20.31
2023-05-05T14:48:32.638Z,20.30
2023-05-05T14:51:00.110Z,20.15
2023-05-05T14:53:27.691Z,20.19
2023-05-05T14:55:55.618Z,20.27
2023-05-05T14:58:22.950Z,20.45
2023-05-05T15:00:50.525Z,20.42
2023-05-05T15:03:21.925Z,20.54
2023-05-05T15:05:49.136Z,20.67
2023-05-05T15:08:16.037Z,20.85
2023-05-05T15:10:43.306Z,20.92
2023-05-05T15:13:10.769Z,21.03
2023-05-05T15:15:38.347Z,21.15
2023-05-05T15:18:06.609Z,21.24
2023-05-05T15:20:34.794Z,21.44
2023-05-05T15:23:02.620Z,21.60
2023-05-05T15:25:30.165Z,21.63
2023-05-05T15:27:57.853Z,21.75
2023-05-05T15:30:25.239Z,21.58
2023-05-05T15:32:52.786Z,21.47
2023-05-05T15:35:20.245Z,21.14
2023-05-05T15:37:49.382Z,21.03
2023-05-05T15:40:16.217Z,20.98
2023-05-05T15:42:43.624Z,20.86
2023-05-05T15:45:10.814Z,20.86
2023-05-05T15:47:38.287Z,21.13
2023-05-05T15:50:06.928Z,21.11
2023-05-05T15:52:34.399Z,21.01
2023-05-05T15:55:03.855Z,21.09
2023-05-05T15:57:30.840Z,21.40
2023-05-05T15:59:58.103Z,21.36
2023-05-05T16:02:25.977Z,21.35
2023-05-05T16:04:54.012Z,21.40
2023-05-05T16:07:21.439Z,21.39
2023-05-05T16:09:48.678Z,21.24
2023-05-05T16:12:17.806Z,21.23
2023-05-05T16:14:44.774Z,21.27
2023-05-05T16:17:11.469Z,21.45
2023-05-05T16:19:38.406Z,21.68
2023-05-05T16:22:06.667Z,21.60
2023-05-05T16:24:34.099Z,21.64
2023-05-05T16:27:01.588Z,21.43
2023-05-05T16:29:30.654Z,21.37
2023-05-05T16:31:57.437Z,21.30
2023-05-05T16:34:24.534Z,21.23
2023-05-05T16:36:51.307Z,21.46
2023-05-05T16:39:18.544Z,21.47
2023-05-05T16:41:46.198Z,21.40
2023-05-05T16:44:14.353Z,21.47
2023-05-05T16:46:43.230Z,21.47
2023-05-05T16:49:10.884Z,21.75
2023-05-05T16:51:38.241Z,21.95
2023-05-05T16:54:05.668Z,21.98
2023-05-05T16:56:33.379Z,22.00
2023-05-05T16:59:00.182Z,22.02
2023-05-05T17:01:27.177Z,22.21
2023-05-05T17:03:56.225Z,22.41
2023-05-05T17:06:23.647Z,22.29
2023-05-05T17:08:50.867Z,22.32
2023-05-05T17:11:18.080Z,22.56
2023-05-05T17:13:45.433Z,22.67
2023-05-05T17:16:13.011Z,22.86
2023-05-05T17:18:40.473Z,23.02
2023-05-05T17:21:09.683Z,22.98
2023-05-05T17:23:36.977Z,22.89
2023-05-05T17:26:04.552Z,23.11
2023-05-05T17:28:31.445Z,23.18
2023-05-05T17:30:58.844Z,23.00
2023-05-05T17:33:26.465Z,22.99
2023-05-05T17:35:54.438Z,22.90
2023-05-05T17:38:22.905Z,22.82
2023-05-05T17:40:49.617Z,22.62
2023-05-05T17:43:16.441Z,22.55
2023-05-05T17:45:45.224Z,22.60
2023-05-05T17:48:12.860Z,22.63
2023-05-05T17:50:42.652Z,22.69
2023-05-05T17:53:10.080Z,22.72
2023-05-05T17:55:39.294Z,22.74
2023-05-05T17:58:06.524Z,22.85
2023-05-05T18:00:33.318Z,22.82
2023-05-05T18:03:01.329Z,22.76
2023-05-05T18:05:29.360Z,22.65
2023-05-05T18:07:56.712Z,22.60
2023-05-05T18:10:23.860Z,22.69
2023-05-05T18:12:52.910Z,22.88
2023-05-05T18:15:20.550Z,22.77
2023-05-05T18:17:47.966Z,22.93
2023-05-05T18:20:15.213Z,22.92
2023-05-05T18:22:42.555Z,22.97
2023-05-05T18:25:10.469Z,22.82
2023-05-05T18:27:40.287Z,22.84
2023-05-05T18:30:10.499Z,22.56
2023-05-05T18:32:38.034Z,22.59
2023-05-05T18:35:06.361Z,22.56
2023-05-05T18:37:33.648Z,22.49
2023-05-05T18:40:01.073Z,22.40
2023-05-05T18:42:28.275Z,22.44
2023-05-05T18:44:56.693Z,22.46
2023-05-05T18:47:25.382Z,22.51
2023-05-05T18:49:52.761Z,22.55
2023-05-05T18:52:23.416Z,22.50
2023-05-05T18:54:50.727Z,22.51
2023-05-05T18:57:20.119Z,22.67
2023-05-05T18:59:47.402Z,22.75
2023-05-05T19:02:15.468Z,22.89
2023-05-05T19:04:44.660Z,22.91
2023-05-05T19:07:18.402Z,22.95
2023-05-05T19:09:51.816Z,22.99
2023-05-05T19:12:19.813Z,22.94
2023-05-05T19:14:47.115Z,22.88
2023-05-05T19:17:14.517Z,22.61
2023-05-05T19:19:43.709Z,22.47
2023-05-05T19:22:11.075Z,22.36
2023-05-05T19:24:38.269Z,22.37
2023-05-05T19:27:05.869Z,22.38
2023-05-05T19:29:33.104Z,22.27
2023-05-05T19:32:00.856Z,22.12
2023-05-05T19:34:28.460Z,22.02
2023-05-05T19:36:57.793Z,21.97
2023-05-05T19:39:24.982Z,21.88
2023-05-05T19:41:52.265Z,21.76
2023-05-05T19:44:19.782Z,21.72
2023-05-05T19:46:46.994Z,21.65
2023-05-05T19:49:14.643Z,21.59
2023-05-05T19:51:42.373Z,21.59
2023-05-05T19:54:11.400Z,21.58
2023-05-05T19:56:38.833Z,21.55
2023-05-05T19:59:06.228Z,21.54
2023-05-05T20:01:33.572Z,21.49
2023-05-05T20:04:01.110Z,21.53
2023-05-05T20:06:28.546Z,21.61
2023-05-05T20:08:56.964Z,21.60
2023-05-05T20:11:26.256Z,21.48
2023-05-05T20:13:53.594Z,21.49
2023-05-05T20:16:20.728Z,21.46
2023-05-05T20:18:49.714Z,21.59
2023-05-05T20:21:17.668Z,21.49
2023-05-05T20:23:45.400Z,21.52
2023-05-05T20:26:12.784Z,21.59
2023-05-05T20:28:44.834Z,21.65
2023-05-05T20:31:16.268Z,21.62
2023-05-05T20:33:43.668Z,21.60
2023-05-05T20:36:11.533Z,21.63
2023-05-05T20:38:39.559Z,21.65
2023-05-05T20:41:06.799Z,21.60
2023-05-05T20:43:34.099Z,21.62
2023-05-05T20:46:03.080Z,21.63
2023-05-05T20:48:30.490Z,21.72
2023-05-05T20:51:06.644Z,21.76
2023-05-05T20:53:34.361Z,21.86
2023-05-05T20:56:01.864Z,21.83
2023-05-05T20:58:30.056Z,21.68
2023-05-05T21:00:57.561Z,21.68
2023-05-05T21:03:26.846Z,21.56
2023-05-05T21:05:55.423Z,21.44
2023-05-05T21:08:23.007Z,21.31
2023-05-05T21:10:50.504Z,21.25
2023-05-05T21:13:18.368Z,21.19
2023-05-05T21:15:45.777Z,21.19
2023-05-05T21:18:13.580Z,21.06
2023-05-05T21:20:42.586Z,21.14
2023-05-05T21:23:11.147Z,21.25
2023-05-05T21:25:38.702Z,21.19
2023-05-05T21:28:06.426Z,21.20
2023-05-05T21:30:33.597Z,21.30
2023-05-05T21:33:00.456Z,21.24
2023-05-05T21:35:28.377Z,21.14
2023-05-05T21:37:56.888Z,21.21
2023-05-05T21:40:23.952Z,21.35
2023-05-05T21:42:51.271Z,21.27
2023-05-05T21:45:18.705Z,21.18
2023-05-05T21:47:45.912Z,21.22
2023-05-05T21:50:13.464Z,21.23
2023-05-05T21:52:40.652Z,21.27
2023-05-05T21:55:10.000Z,21.21
2023-05-05T21:57:37.532Z,21.13
2023-05-05T22:00:05.952Z,21.11
2023-05-05T22:02:33.999Z,21.08
2023-05-05T22:05:01.499Z,21.04
2023-05-05T22:07:28.810Z,21.11
2023-05-05T22:09:57.010Z,21.05
2023-05-05T22:12:26.346Z,21.07
2023-05-05T22:14:53.698Z,21.08
2023-05-05T22:17:20.445Z,21.06
2023-05-05T22:19:47.600Z,21.03
2023-05-05T22:22:14.751Z,21.08
2023-05-05T22:24:41.856Z,20.94
2023-05-05T22:27:10.707Z,20.97
2023-05-05T22:29:40.058Z,20.96
2023-05-05T22:32:08.103Z,20.90
2023-05-05T22:34:36.215Z,21.00
2023-05-05T22:37:03.441Z,20.84
2023-05-05T22:39:30.687Z,20.84
2023-05-05T22:41:58.064Z,20.94
2023-05-05T22:44:25.476Z,20.90
2023-05-05T22:46:55.391Z,20.97
2023-05-05T22:49:23.098Z,21.02
2023-05-05T22:51:50.244Z,21.05
2023-05-05T22:54:18.103Z,21.06
2023-05-05T22:56:45.896Z,21.08
2023-05-05T22:59:13.338Z,21.01
2023-05-05T23:01:41.207Z,21.11
2023-05-05T23:04:10.194Z,21.08
2023-05-05T23:06:37.740Z,21.09
2023-05-05T23:09:05.075Z,21.11
2023-05-05T23:11:32.450Z,21.10
2023-05-05T23:13:59.430Z,21.08
2023-05-05T23:16:27.278Z,21.07
2023-05-05T23:18:55.205Z,21.12
2023-05-05T23:21:24.423Z,21.08
2023-05-05T23:23:51.735Z,21.10
2023-05-05T23:26:18.787Z,21.15
2023-05-05T23:28:46.181Z,21.12
2023-05-05T23:31:12.805Z,21.02
2023-05-05T23:33:40.472Z,21.18
2023-05-05T23:36:09.116Z,21.09
2023-05-05T23:38:38.651Z,21.26
2023-05-05T23:41:06.862Z,21.27
2023-05-05T23:43:34.261Z,21.22
2023-05-05T23:46:01.493Z,21.20
2023-05-05T23:48:28.212Z,21.33
2023-05-05T23:50:55.535Z,21.34
2023-05-05T23:53:22.994Z,21.31
2023-05-05T23:55:52.326Z,21.21
2023-05-05T23:58:19.206Z,21.17
